sensor_id;sensor_type;location;lat;lon;timestamp;P1;durP1;ratioP1;P2;durP2;ratioP2
9809;SDS011;4944;52.514;13.192;2023-07-09T00:01:42;3.88;;;3.00;;
9809;SDS011;4944;52.514;13.192;2023-07-09T00:04:09;3.30;;;3.10;;
9809;SDS011;4944;52.514;13.192;2023-07-09T00:06:37;3.13;;;2.85;;
9809;SDS011;4944;52.514;13.192;2023-07-09T00:09:04;3.58;;;3.28;;
9809;SDS011;4944;52.514;13.192;2023-07-09T00:11:32;4.20;;;3.13;;
9809;SDS011;4944;52.514;13.192;2023-07-09T00:13:59;5.20;;;3.47;;
9809;SDS011;4944;52.514;13.192;2023-07-09T00:16:26;2.85;;;2.67;;
9809;SDS011;4944;52.514;13.192;2023-07-09T00:18:54;3.10;;;2.90;;
9809;SDS011;4944;52.514;13.192;2023-07-09T00:21:21;3.70;;;3.05;;
9809;SDS011;4944;52.514;13.192;2023-07-09T00:23:48;3.58;;;3.25;;
9809;SDS011;4944;52.514;13.192;2023-07-09T00:26:16;4.05;;;2.85;;
9809;SDS011;4944;52.514;13.192;2023-07-09T00:28:48;3.72;;;2.80;;
9809;SDS011;4944;52.514;13.192;2023-07-09T00:31:15;3.20;;;2.78;;
9809;SDS011;4944;52.514;13.192;2023-07-09T00:33:42;5.40;;;3.63;;
9809;SDS011;4944;52.514;13.192;2023-07-09T00:36:13;3.65;;;3.15;;
9809;SDS011;4944;52.514;13.192;2023-07-09T00:38:41;3.33;;;3.03;;
9809;SDS011;4944;52.514;13.192;2023-07-09T00:41:14;3.40;;;3.10;;
9809;SDS011;4944;52.514;13.192;2023-07-09T00:43:44;6.60;;;3.13;;
9809;SDS011;4944;52.514;13.192;2023-07-09T00:46:14;3.45;;;3.15;;
9809;SDS011;4944;52.514;13.192;2023-07-09T00:49:03;4.13;;;3.20;;
9809;SDS011;4944;52.514;13.192;2023-07-09T00:51:36;4.53;;;3.30;;
9809;SDS011;4944;52.514;13.192;2023-07-09T00:54:09;3.70;;;3.03;;
9809;SDS011;4944;52.514;13.192;2023-07-09T00:56:41;3.60;;;2.95;;
9809;SDS011;4944;52.514;13.192;2023-07-09T00:59:12;3.70;;;3.15;;
9809;SDS011;4944;52.514;13.192;2023-07-09T01:01:43;3.65;;;3.35;;
9809;SDS011;4944;52.514;13.192;2023-07-09T01:04:12;5.38;;;3.75;;
9809;SDS011;4944;52.514;13.192;2023-07-09T01:06:44;5.35;;;4.88;;
9809;SDS011;4944;52.514;13.192;2023-07-09T01:09:14;5.80;;;4.57;;
9809;SDS011;4944;52.514;13.192;2023-07-09T01:11:41;5.30;;;4.43;;
9809;SDS011;4944;52.514;13.192;2023-07-09T01:14:09;4.93;;;3.63;;
9809;SDS011;4944;52.514;13.192;2023-07-09T01:16:47;4.00;;;3.70;;
9809;SDS011;4944;52.514;13.192;2023-07-09T01:19:22;3.65;;;3.35;;
9809;SDS011;4944;52.514;13.192;2023-07-09T01:21:51;3.63;;;3.33;;
9809;SDS011;4944;52.514;13.192;2023-07-09T01:27:16;3.60;;;3.30;;
9809;SDS011;4944;52.514;13.192;2023-07-09T01:29:45;4.00;;;3.25;;
9809;SDS011;4944;52.514;13.192;2023-07-09T01:32:14;3.22;;;2.97;;
9809;SDS011;4944;52.514;13.192;2023-07-09T01:34:43;4.22;;;2.83;;
9809;SDS011;4944;52.514;13.192;2023-07-09T01:37:15;3.63;;;3.30;;
9809;SDS011;4944;52.514;13.192;2023-07-09T01:39:43;3.60;;;3.03;;
9809;SDS011;4944;52.514;13.192;2023-07-09T01:42:10;4.28;;;3.10;;
9809;SDS011;4944;52.514;13.192;2023-07-09T01:44:38;3.78;;;3.15;;
9809;SDS011;4944;52.514;13.192;2023-07-09T01:47:05;5.20;;;3.40;;
9809;SDS011;4944;52.514;13.192;2023-07-09T01:49:32;4.40;;;3.50;;
9809;SDS011;4944;52.514;13.192;2023-07-09T01:51:59;8.35;;;3.50;;
9809;SDS011;4944;52.514;13.192;2023-07-09T01:54:29;5.53;;;3.17;;
9809;SDS011;4944;52.514;13.192;2023-07-09T01:57:11;5.10;;;3.20;;
9809;SDS011;4944;52.514;13.192;2023-07-09T01:59:40;4.45;;;2.85;;
9809;SDS011;4944;52.514;13.192;2023-07-09T02:02:09;3.13;;;2.92;;
9809;SDS011;4944;52.514;13.192;2023-07-09T02:04:44;4.35;;;2.88;;
9809;SDS011;4944;52.514;13.192;2023-07-09T02:07:12;3.63;;;3.17;;
9809;SDS011;4944;52.514;13.192;2023-07-09T02:09:40;5.72;;;3.00;;
9809;SDS011;4944;52.514;13.192;2023-07-09T02:12:08;4.20;;;3.08;;
9809;SDS011;4944;52.514;13.192;2023-07-09T02:14:36;4.05;;;3.10;;
9809;SDS011;4944;52.514;13.192;2023-07-09T02:17:03;3.63;;;3.10;;
9809;SDS011;4944;52.514;13.192;2023-07-09T02:19:30;3.20;;;2.90;;
9809;SDS011;4944;52.514;13.192;2023-07-09T02:21:57;3.30;;;3.05;;
9809;SDS011;4944;52.514;13.192;2023-07-09T02:24:24;7.30;;;3.17;;
9809;SDS011;4944;52.514;13.192;2023-07-09T02:26:54;4.38;;;3.38;;
9809;SDS011;4944;52.514;13.192;2023-07-09T02:29:21;3.13;;;2.90;;
9809;SDS011;4944;52.514;13.192;2023-07-09T02:31:48;5.45;;;3.20;;
9809;SDS011;4944;52.514;13.192;2023-07-09T02:34:15;5.15;;;3.40;;
9809;SDS011;4944;52.514;13.192;2023-07-09T02:36:42;3.45;;;3.15;;
9809;SDS011;4944;52.514;13.192;2023-07-09T02:39:09;3.45;;;3.10;;
9809;SDS011;4944;52.514;13.192;2023-07-09T02:41:37;3.88;;;3.47;;
9809;SDS011;4944;52.514;13.192;2023-07-09T02:44:06;3.92;;;3.25;;
9809;SDS011;4944;52.514;13.192;2023-07-09T02:46:33;3.60;;;3.28;;
9809;SDS011;4944;52.514;13.192;2023-07-09T02:49:02;3.30;;;3.00;;
9809;SDS011;4944;52.514;13.192;2023-07-09T02:51:30;4.35;;;3.03;;
9809;SDS011;4944;52.514;13.192;2023-07-09T02:53:58;4.25;;;3.20;;
9809;SDS011;4944;52.514;13.192;2023-07-09T02:56:27;7.68;;;3.38;;
9809;SDS011;4944;52.514;13.192;2023-07-09T02:58:54;4.15;;;3.45;;
9809;SDS011;4944;52.514;13.192;2023-07-09T03:01:22;3.38;;;2.92;;
9809;SDS011;4944;52.514;13.192;2023-07-09T03:03:52;5.05;;;3.30;;
9809;SDS011;4944;52.514;13.192;2023-07-09T03:06:19;3.28;;;2.97;;
9809;SDS011;4944;52.514;13.192;2023-07-09T03:08:46;4.18;;;3.22;;
9809;SDS011;4944;52.514;13.192;2023-07-09T03:11:14;3.22;;;2.92;;
9809;SDS011;4944;52.514;13.192;2023-07-09T03:13:42;3.20;;;2.90;;
9809;SDS011;4944;52.514;13.192;2023-07-09T03:16:09;4.97;;;3.20;;
9809;SDS011;4944;52.514;13.192;2023-07-09T03:18:37;4.15;;;3.67;;
9809;SDS011;4944;52.514;13.192;2023-07-09T03:21:05;3.95;;;3.08;;
9809;SDS011;4944;52.514;13.192;2023-07-09T03:23:32;3.42;;;2.92;;
9809;SDS011;4944;52.514;13.192;2023-07-09T03:25:59;3.80;;;3.50;;
9809;SDS011;4944;52.514;13.192;2023-07-09T03:28:26;3.60;;;3.30;;
9809;SDS011;4944;52.514;13.192;2023-07-09T03:30:54;4.10;;;3.60;;
9809;SDS011;4944;52.514;13.192;2023-07-09T03:33:21;4.93;;;3.72;;
9809;SDS011;4944;52.514;13.192;2023-07-09T03:35:50;5.13;;;3.30;;
9809;SDS011;4944;52.514;13.192;2023-07-09T03:38:18;10.15;;;3.97;;
9809;SDS011;4944;52.514;13.192;2023-07-09T03:40:45;3.92;;;3.10;;
9809;SDS011;4944;52.514;13.192;2023-07-09T03:43:15;8.77;;;3.78;;
9809;SDS011;4944;52.514;13.192;2023-07-09T03:45:43;5.20;;;3.60;;
9809;SDS011;4944;52.514;13.192;2023-07-09T03:48:11;4.32;;;3.95;;
9809;SDS011;4944;52.514;13.192;2023-07-09T03:50:39;5.47;;;3.80;;
9809;SDS011;4944;52.514;13.192;2023-07-09T03:53:07;5.30;;;4.18;;
9809;SDS011;4944;52.514;13.192;2023-07-09T03:55:34;4.65;;;4.15;;
9809;SDS011;4944;52.514;13.192;2023-07-09T03:58:01;3.88;;;3.58;;
9809;SDS011;4944;52.514;13.192;2023-07-09T04:00:28;4.05;;;3.75;;
9809;SDS011;4944;52.514;13.192;2023-07-09T04:02:56;4.38;;;4.07;;
9809;SDS011;4944;52.514;13.192;2023-07-09T04:05:23;4.43;;;4.03;;
9809;SDS011;4944;52.514;13.192;2023-07-09T04:07:50;5.13;;;4.07;;
9809;SDS011;4944;52.514;13.192;2023-07-09T04:10:19;5.18;;;4.40;;
9809;SDS011;4944;52.514;13.192;2023-07-09T04:12:46;8.40;;;4.55;;
9809;SDS011;4944;52.514;13.192;2023-07-09T04:15:13;4.28;;;3.90;;
9809;SDS011;4944;52.514;13.192;2023-07-09T04:17:40;5.50;;;4.07;;
9809;SDS011;4944;52.514;13.192;2023-07-09T04:20:08;4.60;;;4.20;;
9809;SDS011;4944;52.514;13.192;2023-07-09T04:22:35;6.38;;;4.03;;
9809;SDS011;4944;52.514;13.192;2023-07-09T04:25:03;5.22;;;4.25;;
9809;SDS011;4944;52.514;13.192;2023-07-09T04:27:33;5.53;;;4.30;;
9809;SDS011;4944;52.514;13.192;2023-07-09T04:29:59;5.45;;;3.95;;
9809;SDS011;4944;52.514;13.192;2023-07-09T04:32:27;5.43;;;4.25;;
9809;SDS011;4944;52.514;13.192;2023-07-09T04:34:54;3.88;;;3.55;;
9809;SDS011;4944;52.514;13.192;2023-07-09T04:37:21;4.85;;;3.60;;
9809;SDS011;4944;52.514;13.192;2023-07-09T04:39:48;4.63;;;4.15;;
9809;SDS011;4944;52.514;13.192;2023-07-09T04:42:16;4.50;;;4.10;;
9809;SDS011;4944;52.514;13.192;2023-07-09T04:44:45;3.90;;;3.60;;
9809;SDS011;4944;52.514;13.192;2023-07-09T04:47:12;4.32;;;3.67;;
9809;SDS011;4944;52.514;13.192;2023-07-09T04:49:39;4.10;;;3.80;;
9809;SDS011;4944;52.514;13.192;2023-07-09T04:52:07;5.13;;;3.50;;
9809;SDS011;4944;52.514;13.192;2023-07-09T04:54:37;4.30;;;3.88;;
9809;SDS011;4944;52.514;13.192;2023-07-09T04:57:06;4.10;;;3.58;;
9809;SDS011;4944;52.514;13.192;2023-07-09T04:59:33;3.85;;;3.50;;
9809;SDS011;4944;52.514;13.192;2023-07-09T05:02:01;3.85;;;3.10;;
9809;SDS011;4944;52.514;13.192;2023-07-09T05:04:29;6.20;;;3.53;;
9809;SDS011;4944;52.514;13.192;2023-07-09T05:06:56;5.18;;;3.55;;
9809;SDS011;4944;52.514;13.192;2023-07-09T05:09:23;3.78;;;3.55;;
9809;SDS011;4944;52.514;13.192;2023-07-09T05:11:50;3.80;;;3.50;;
9809;SDS011;4944;52.514;13.192;2023-07-09T05:14:17;3.80;;;3.50;;
9809;SDS011;4944;52.514;13.192;2023-07-09T05:16:44;5.07;;;3.75;;
9809;SDS011;4944;52.514;13.192;2023-07-09T05:19:13;7.00;;;3.33;;
9809;SDS011;4944;52.514;13.192;2023-07-09T05:21:40;4.10;;;3.70;;
9809;SDS011;4944;52.514;13.192;2023-07-09T05:24:07;3.63;;;3.33;;
9809;SDS011;4944;52.514;13.192;2023-07-09T05:26:34;3.78;;;3.47;;
9809;SDS011;4944;52.514;13.192;2023-07-09T05:29:01;3.35;;;2.97;;
9809;SDS011;4944;52.514;13.192;2023-07-09T05:31:30;4.35;;;3.50;;
9809;SDS011;4944;52.514;13.192;2023-07-09T05:33:58;6.45;;;3.80;;
9809;SDS011;4944;52.514;13.192;2023-07-09T05:36:27;4.63;;;3.25;;
9809;SDS011;4944;52.514;13.192;2023-07-09T05:38:54;3.75;;;3.30;;
9809;SDS011;4944;52.514;13.192;2023-07-09T05:41:21;5.03;;;3.90;;
9809;SDS011;4944;52.514;13.192;2023-07-09T05:43:49;6.60;;;3.92;;
9809;SDS011;4944;52.514;13.192;2023-07-09T05:46:17;6.18;;;4.00;;
9809;SDS011;4944;52.514;13.192;2023-07-09T05:48:44;3.60;;;3.30;;
9809;SDS011;4944;52.514;13.192;2023-07-09T05:51:11;4.90;;;3.55;;
9809;SDS011;4944;52.514;13.192;2023-07-09T05:53:40;5.25;;;3.45;;
9809;SDS011;4944;52.514;13.192;2023-07-09T05:56:06;3.78;;;3.55;;
9809;SDS011;4944;52.514;13.192;2023-07-09T05:58:33;3.60;;;3.30;;
9809;SDS011;4944;52.514;13.192;2023-07-09T06:01:01;3.67;;;3.38;;
9809;SDS011;4944;52.514;13.192;2023-07-09T06:03:28;4.40;;;3.38;;
9809;SDS011;4944;52.514;13.192;2023-07-09T06:05:56;3.72;;;3.42;;
9809;SDS011;4944;52.514;13.192;2023-07-09T06:08:23;3.53;;;3.22;;
9809;SDS011;4944;52.514;13.192;2023-07-09T06:10:53;5.30;;;3.70;;
9809;SDS011;4944;52.514;13.192;2023-07-09T06:13:22;4.13;;;3.45;;
9809;SDS011;4944;52.514;13.192;2023-07-09T06:15:49;6.55;;;3.58;;
9809;SDS011;4944;52.514;13.192;2023-07-09T06:18:17;8.70;;;3.50;;
9809;SDS011;4944;52.514;13.192;2023-07-09T06:20:48;6.13;;;3.80;;
9809;SDS011;4944;52.514;13.192;2023-07-09T06:23:16;4.20;;;3.90;;
9809;SDS011;4944;52.514;13.192;2023-07-09T06:25:45;4.32;;;3.72;;
9809;SDS011;4944;52.514;13.192;2023-07-09T06:28:15;3.50;;;3.30;;
9809;SDS011;4944;52.514;13.192;2023-07-09T06:30:43;4.13;;;3.80;;
9809;SDS011;4944;52.514;13.192;2023-07-09T06:33:10;3.85;;;3.63;;
9809;SDS011;4944;52.514;13.192;2023-07-09T06:35:39;4.30;;;3.28;;
9809;SDS011;4944;52.514;13.192;2023-07-09T06:38:11;5.03;;;3.67;;
9809;SDS011;4944;52.514;13.192;2023-07-09T06:40:38;4.75;;;3.60;;
9809;SDS011;4944;52.514;13.192;2023-07-09T06:43:05;5.68;;;3.53;;
9809;SDS011;4944;52.514;13.192;2023-07-09T06:45:33;3.60;;;3.30;;
9809;SDS011;4944;52.514;13.192;2023-07-09T06:48:00;3.63;;;3.30;;
9809;SDS011;4944;52.514;13.192;2023-07-09T06:50:27;4.07;;;3.55;;
9809;SDS011;4944;52.514;13.192;2023-07-09T06:52:54;3.47;;;3.10;;
9809;SDS011;4944;52.514;13.192;2023-07-09T06:55:23;3.50;;;3.20;;
9809;SDS011;4944;52.514;13.192;2023-07-09T06:57:50;4.32;;;3.40;;
9809;SDS011;4944;52.514;13.192;2023-07-09T07:00:17;3.80;;;3.50;;
9809;SDS011;4944;52.514;13.192;2023-07-09T07:02:45;4.68;;;2.90;;
9809;SDS011;4944;52.514;13.192;2023-07-09T07:05:12;3.55;;;3.30;;
9809;SDS011;4944;52.514;13.192;2023-07-09T07:07:39;3.45;;;3.15;;
9809;SDS011;4944;52.514;13.192;2023-07-09T07:10:06;3.50;;;3.00;;
9809;SDS011;4944;52.514;13.192;2023-07-09T07:12:40;3.13;;;2.92;;
9809;SDS011;4944;52.514;13.192;2023-07-09T07:15:09;3.50;;;3.20;;
9809;SDS011;4944;52.514;13.192;2023-07-09T07:17:38;3.85;;;3.55;;
9809;SDS011;4944;52.514;13.192;2023-07-09T07:20:07;4.90;;;3.30;;
9809;SDS011;4944;52.514;13.192;2023-07-09T07:22:35;3.50;;;3.20;;
9809;SDS011;4944;52.514;13.192;2023-07-09T07:25:02;3.53;;;3.22;;
9809;SDS011;4944;52.514;13.192;2023-07-09T07:27:30;11.55;;;3.50;;
9809;SDS011;4944;52.514;13.192;2023-07-09T07:29:56;5.20;;;3.35;;
9809;SDS011;4944;52.514;13.192;2023-07-09T07:32:23;4.03;;;3.08;;
9809;SDS011;4944;52.514;13.192;2023-07-09T07:34:50;3.63;;;3.20;;
9809;SDS011;4944;52.514;13.192;2023-07-09T07:37:21;3.45;;;3.15;;
9809;SDS011;4944;52.514;13.192;2023-07-09T07:39:48;3.17;;;2.92;;
9809;SDS011;4944;52.514;13.192;2023-07-09T07:42:14;7.50;;;3.20;;
9809;SDS011;4944;52.514;13.192;2023-07-09T07:44:41;3.08;;;2.88;;
9809;SDS011;4944;52.514;13.192;2023-07-09T07:47:08;5.03;;;3.38;;
9809;SDS011;4944;52.514;13.192;2023-07-09T07:49:37;3.80;;;3.40;;
9809;SDS011;4944;52.514;13.192;2023-07-09T07:52:04;6.25;;;3.80;;
9809;SDS011;4944;52.514;13.192;2023-07-09T07:54:36;3.17;;;2.97;;
9809;SDS011;4944;52.514;13.192;2023-07-09T07:57:03;4.63;;;3.38;;
9809;SDS011;4944;52.514;13.192;2023-07-09T07:59:31;3.80;;;3.28;;
9809;SDS011;4944;52.514;13.192;2023-07-09T08:01:59;3.90;;;3.45;;
9809;SDS011;4944;52.514;13.192;2023-07-09T08:04:26;3.53;;;3.30;;
9809;SDS011;4944;52.514;13.192;2023-07-09T08:06:53;3.70;;;3.30;;
9809;SDS011;4944;52.514;13.192;2023-07-09T08:09:20;4.10;;;3.17;;
9809;SDS011;4944;52.514;13.192;2023-07-09T08:11:49;3.90;;;3.35;;
9809;SDS011;4944;52.514;13.192;2023-07-09T08:14:15;5.80;;;3.22;;
9809;SDS011;4944;52.514;13.192;2023-07-09T08:16:42;5.32;;;3.70;;
9809;SDS011;4944;52.514;13.192;2023-07-09T08:19:09;3.72;;;3.10;;
9809;SDS011;4944;52.514;13.192;2023-07-09T08:21:36;5.75;;;3.55;;
9809;SDS011;4944;52.514;13.192;2023-07-09T08:24:03;3.88;;;3.05;;
9809;SDS011;4944;52.514;13.192;2023-07-09T08:26:31;3.30;;;3.08;;
9809;SDS011;4944;52.514;13.192;2023-07-09T08:28:59;4.80;;;3.60;;
9809;SDS011;4944;52.514;13.192;2023-07-09T08:31:26;4.32;;;3.33;;
9809;SDS011;4944;52.514;13.192;2023-07-09T08:33:53;4.28;;;3.22;;
9809;SDS011;4944;52.514;13.192;2023-07-09T08:36:20;5.15;;;3.60;;
9809;SDS011;4944;52.514;13.192;2023-07-09T08:38:47;3.67;;;3.30;;
9809;SDS011;4944;52.514;13.192;2023-07-09T08:41:20;25.48;;;5.32;;
9809;SDS011;4944;52.514;13.192;2023-07-09T08:44:14;10.80;;;3.67;;
9809;SDS011;4944;52.514;13.192;2023-07-09T08:46:54;6.22;;;3.80;;
9809;SDS011;4944;52.514;13.192;2023-07-09T08:49:31;3.45;;;3.22;;
9809;SDS011;4944;52.514;13.192;2023-07-09T08:52:04;8.13;;;3.88;;
9809;SDS011;4944;52.514;13.192;2023-07-09T08:54:36;16.13;;;4.20;;
9809;SDS011;4944;52.514;13.192;2023-07-09T08:57:07;10.70;;;4.60;;
9809;SDS011;4944;52.514;13.192;2023-07-09T08:59:48;4.82;;;3.28;;
9809;SDS011;4944;52.514;13.192;2023-07-09T09:02:26;4.05;;;3.75;;
9809;SDS011;4944;52.514;13.192;2023-07-09T09:04:58;3.47;;;3.28;;
9809;SDS011;4944;52.514;13.192;2023-07-09T09:07:28;3.63;;;3.35;;
9809;SDS011;4944;52.514;13.192;2023-07-09T09:10:05;4.80;;;3.78;;
9809;SDS011;4944;52.514;13.192;2023-07-09T09:12:38;3.53;;;3.22;;
9809;SDS011;4944;52.514;13.192;2023-07-09T09:15:12;3.45;;;3.25;;
9809;SDS011;4944;52.514;13.192;2023-07-09T09:17:42;4.72;;;3.33;;
9809;SDS011;4944;52.514;13.192;2023-07-09T09:20:10;5.03;;;3.58;;
9809;SDS011;4944;52.514;13.192;2023-07-09T09:22:43;3.85;;;3.55;;
9809;SDS011;4944;52.514;13.192;2023-07-09T09:25:16;6.78;;;3.35;;
9809;SDS011;4944;52.514;13.192;2023-07-09T09:27:49;5.68;;;3.50;;
9809;SDS011;4944;52.514;13.192;2023-07-09T09:30:18;4.75;;;3.38;;
9809;SDS011;4944;52.514;13.192;2023-07-09T09:32:47;3.90;;;3.50;;
9809;SDS011;4944;52.514;13.192;2023-07-09T09:35:19;3.90;;;3.60;;
9809;SDS011;4944;52.514;13.192;2023-07-09T09:37:52;12.07;;;4.10;;
9809;SDS011;4944;52.514;13.192;2023-07-09T09:40:20;8.40;;;3.90;;
9809;SDS011;4944;52.514;13.192;2023-07-09T09:42:48;6.03;;;3.72;;
9809;SDS011;4944;52.514;13.192;2023-07-09T09:45:16;5.35;;;3.30;;
9809;SDS011;4944;52.514;13.192;2023-07-09T09:47:46;4.15;;;3.40;;
9809;SDS011;4944;52.514;13.192;2023-07-09T09:50:14;4.45;;;3.83;;
9809;SDS011;4944;52.514;13.192;2023-07-09T09:52:42;3.92;;;3.45;;
9809;SDS011;4944;52.514;13.192;2023-07-09T09:55:12;6.50;;;3.17;;
9809;SDS011;4944;52.514;13.192;2023-07-09T09:57:47;3.90;;;3.53;;
9809;SDS011;4944;52.514;13.192;2023-07-09T10:00:14;3.60;;;3.30;;
9809;SDS011;4944;52.514;13.192;2023-07-09T10:02:43;3.60;;;3.20;;
9809;SDS011;4944;52.514;13.192;2023-07-09T10:05:12;3.10;;;2.90;;
9809;SDS011;4944;52.514;13.192;2023-07-09T10:07:43;3.83;;;3.53;;
9809;SDS011;4944;52.514;13.192;2023-07-09T10:10:14;4.20;;;3.45;;
9809;SDS011;4944;52.514;13.192;2023-07-09T10:12:47;3.72;;;3.42;;
9809;SDS011;4944;52.514;13.192;2023-07-09T10:15:20;3.38;;;3.17;;
9809;SDS011;4944;52.514;13.192;2023-07-09T10:17:57;4.00;;;3.72;;
9809;SDS011;4944;52.514;13.192;2023-07-09T10:20:30;3.60;;;3.30;;
9809;SDS011;4944;52.514;13.192;2023-07-09T10:23:02;5.85;;;3.55;;
9809;SDS011;4944;52.514;13.192;2023-07-09T10:25:40;5.53;;;3.80;;
9809;SDS011;4944;52.514;13.192;2023-07-09T10:28:21;5.95;;;3.63;;
9809;SDS011;4944;52.514;13.192;2023-07-09T10:31:00;4.15;;;3.65;;
9809;SDS011;4944;52.514;13.192;2023-07-09T10:33:36;5.22;;;3.45;;
9809;SDS011;4944;52.514;13.192;2023-07-09T10:36:16;5.00;;;3.03;;
9809;SDS011;4944;52.514;13.192;2023-07-09T10:38:52;3.88;;;3.58;;
9809;SDS011;4944;52.514;13.192;2023-07-09T10:41:25;4.65;;;3.35;;
9809;SDS011;4944;52.514;13.192;2023-07-09T10:43:54;4.18;;;3.80;;
9809;SDS011;4944;52.514;13.192;2023-07-09T10:46:25;5.80;;;3.17;;
9809;SDS011;4944;52.514;13.192;2023-07-09T10:48:58;4.28;;;3.88;;
9809;SDS011;4944;52.514;13.192;2023-07-09T10:51:32;3.38;;;3.25;;
9809;SDS011;4944;52.514;13.192;2023-07-09T10:54:05;5.40;;;3.92;;
9809;SDS011;4944;52.514;13.192;2023-07-09T10:56:40;3.22;;;3.00;;
9809;SDS011;4944;52.514;13.192;2023-07-09T10:59:11;5.30;;;3.75;;
9809;SDS011;4944;52.514;13.192;2023-07-09T11:01:46;3.85;;;3.55;;
9809;SDS011;4944;52.514;13.192;2023-07-09T11:04:20;6.07;;;3.60;;
9809;SDS011;4944;52.514;13.192;2023-07-09T11:06:56;4.13;;;3.83;;
9809;SDS011;4944;52.514;13.192;2023-07-09T11:09:26;3.53;;;3.22;;
9809;SDS011;4944;52.514;13.192;2023-07-09T11:11:58;4.35;;;3.28;;
9809;SDS011;4944;52.514;13.192;2023-07-09T11:14:32;10.05;;;4.10;;
9809;SDS011;4944;52.514;13.192;2023-07-09T11:17:03;3.75;;;3.45;;
9809;SDS011;4944;52.514;13.192;2023-07-09T11:19:40;3.92;;;3.63;;
9809;SDS011;4944;52.514;13.192;2023-07-09T11:22:14;8.73;;;3.72;;
9809;SDS011;4944;52.514;13.192;2023-07-09T11:24:47;7.03;;;3.65;;
9809;SDS011;4944;52.514;13.192;2023-07-09T11:27:18;4.93;;;3.85;;
9809;SDS011;4944;52.514;13.192;2023-07-09T11:29:48;3.95;;;3.63;;
9809;SDS011;4944;52.514;13.192;2023-07-09T11:32:21;3.83;;;3.53;;
9809;SDS011;4944;52.514;13.192;2023-07-09T11:34:50;5.68;;;3.40;;
9809;SDS011;4944;52.514;13.192;2023-07-09T11:37:17;5.35;;;4.55;;
9809;SDS011;4944;52.514;13.192;2023-07-09T11:39:45;5.30;;;4.13;;
9809;SDS011;4944;52.514;13.192;2023-07-09T11:42:24;3.92;;;3.63;;
9809;SDS011;4944;52.514;13.192;2023-07-09T11:44:53;5.10;;;3.83;;
9809;SDS011;4944;52.514;13.192;2023-07-09T11:47:24;8.05;;;3.72;;
9809;SDS011;4944;52.514;13.192;2023-07-09T11:49:58;3.85;;;3.60;;
9809;SDS011;4944;52.514;13.192;2023-07-09T11:52:27;3.95;;;3.55;;
9809;SDS011;4944;52.514;13.192;2023-07-09T11:55:01;4.05;;;3.72;;
9809;SDS011;4944;52.514;13.192;2023-07-09T11:57:28;5.13;;;4.03;;
9809;SDS011;4944;52.514;13.192;2023-07-09T11:59:58;4.35;;;3.65;;
9809;SDS011;4944;52.514;13.192;2023-07-09T12:02:26;4.32;;;3.58;;
9809;SDS011;4944;52.514;13.192;2023-07-09T12:05:00;4.47;;;4.10;;
9809;SDS011;4944;52.514;13.192;2023-07-09T12:07:30;4.28;;;3.97;;
9809;SDS011;4944;52.514;13.192;2023-07-09T12:09:57;5.55;;;3.65;;
9809;SDS011;4944;52.514;13.192;2023-07-09T12:12:24;10.07;;;4.05;;
9809;SDS011;4944;52.514;13.192;2023-07-09T12:14:53;3.97;;;3.65;;
9809;SDS011;4944;52.514;13.192;2023-07-09T12:17:22;4.40;;;3.83;;
9809;SDS011;4944;52.514;13.192;2023-07-09T12:19:51;5.25;;;3.88;;
9809;SDS011;4944;52.514;13.192;2023-07-09T12:22:20;5.32;;;3.80;;
9809;SDS011;4944;52.514;13.192;2023-07-09T12:24:48;4.22;;;3.92;;
9809;SDS011;4944;52.514;13.192;2023-07-09T12:27:18;4.85;;;4.30;;
9809;SDS011;4944;52.514;13.192;2023-07-09T12:29:50;4.60;;;4.20;;
9809;SDS011;4944;52.514;13.192;2023-07-09T12:32:19;4.15;;;3.75;;
9809;SDS011;4944;52.514;13.192;2023-07-09T12:34:49;4.13;;;3.72;;
9809;SDS011;4944;52.514;13.192;2023-07-09T12:37:17;9.60;;;4.10;;
9809;SDS011;4944;52.514;13.192;2023-07-09T12:39:48;4.50;;;3.90;;
9809;SDS011;4944;52.514;13.192;2023-07-09T12:42:17;5.80;;;4.20;;
9809;SDS011;4944;52.514;13.192;2023-07-09T12:44:46;4.70;;;4.30;;
9809;SDS011;4944;52.514;13.192;2023-07-09T12:47:15;4.10;;;3.70;;
9809;SDS011;4944;52.514;13.192;2023-07-09T12:49:44;3.97;;;3.60;;
9809;SDS011;4944;52.514;13.192;2023-07-09T12:52:14;4.10;;;3.80;;
9809;SDS011;4944;52.514;13.192;2023-07-09T12:54:52;4.40;;;4.10;;
9809;SDS011;4944;52.514;13.192;2023-07-09T12:57:22;3.90;;;3.60;;
9809;SDS011;4944;52.514;13.192;2023-07-09T12:59:50;4.55;;;4.15;;
9809;SDS011;4944;52.514;13.192;2023-07-09T13:02:19;4.65;;;3.88;;
9809;SDS011;4944;52.514;13.192;2023-07-09T13:04:47;4.60;;;3.80;;
9809;SDS011;4944;52.514;13.192;2023-07-09T13:07:24;4.18;;;3.83;;
9809;SDS011;4944;52.514;13.192;2023-07-09T13:09:55;5.47;;;3.47;;
9809;SDS011;4944;52.514;13.192;2023-07-09T13:12:28;4.60;;;4.20;;
9809;SDS011;4944;52.514;13.192;2023-07-09T13:14:56;5.05;;;4.10;;
9809;SDS011;4944;52.514;13.192;2023-07-09T13:17:27;4.80;;;3.88;;
9809;SDS011;4944;52.514;13.192;2023-07-09T13:19:55;8.02;;;4.55;;
9809;SDS011;4944;52.514;13.192;2023-07-09T13:22:22;4.22;;;3.92;;
9809;SDS011;4944;52.514;13.192;2023-07-09T13:24:49;7.13;;;3.90;;
9809;SDS011;4944;52.514;13.192;2023-07-09T13:27:17;6.10;;;3.90;;
9809;SDS011;4944;52.514;13.192;2023-07-09T13:29:45;4.25;;;3.80;;
9809;SDS011;4944;52.514;13.192;2023-07-09T13:32:13;4.80;;;4.00;;
9809;SDS011;4944;52.514;13.192;2023-07-09T13:34:42;5.00;;;4.30;;
9809;SDS011;4944;52.514;13.192;2023-07-09T13:37:11;4.10;;;3.90;;
9809;SDS011;4944;52.514;13.192;2023-07-09T13:39:38;4.63;;;4.18;;
9809;SDS011;4944;52.514;13.192;2023-07-09T13:42:09;9.43;;;4.30;;
9809;SDS011;4944;52.514;13.192;2023-07-09T13:44:39;4.50;;;4.10;;
9809;SDS011;4944;52.514;13.192;2023-07-09T13:47:10;5.78;;;4.20;;
9809;SDS011;4944;52.514;13.192;2023-07-09T13:49:41;4.00;;;3.65;;
9809;SDS011;4944;52.514;13.192;2023-07-09T13:52:13;5.10;;;4.03;;
9809;SDS011;4944;52.514;13.192;2023-07-09T13:54:42;5.68;;;4.47;;
9809;SDS011;4944;52.514;13.192;2023-07-09T13:57:13;4.72;;;4.32;;
9809;SDS011;4944;52.514;13.192;2023-07-09T13:59:43;6.60;;;4.63;;
9809;SDS011;4944;52.514;13.192;2023-07-09T14:02:17;5.03;;;4.57;;
9809;SDS011;4944;52.514;13.192;2023-07-09T14:04:48;5.13;;;4.65;;
9809;SDS011;4944;52.514;13.192;2023-07-09T14:07:26;4.85;;;4.50;;
9809;SDS011;4944;52.514;13.192;2023-07-09T14:09:56;6.38;;;5.05;;
9809;SDS011;4944;52.514;13.192;2023-07-09T14:12:24;5.35;;;4.85;;
9809;SDS011;4944;52.514;13.192;2023-07-09T14:14:53;5.00;;;4.60;;
9809;SDS011;4944;52.514;13.192;2023-07-09T14:17:21;4.57;;;4.28;;
9809;SDS011;4944;52.514;13.192;2023-07-09T14:19:48;5.18;;;4.78;;
9809;SDS011;4944;52.514;13.192;2023-07-09T14:22:21;4.90;;;4.47;;
9809;SDS011;4944;52.514;13.192;2023-07-09T14:24:52;7.10;;;4.63;;
9809;SDS011;4944;52.514;13.192;2023-07-09T14:27:18;4.18;;;3.88;;
9809;SDS011;4944;52.514;13.192;2023-07-09T14:29:45;7.80;;;4.50;;
9809;SDS011;4944;52.514;13.192;2023-07-09T14:32:26;4.85;;;4.43;;
9809;SDS011;4944;52.514;13.192;2023-07-09T14:34:58;5.25;;;4.20;;
9809;SDS011;4944;52.514;13.192;2023-07-09T14:37:25;4.70;;;4.32;;
9809;SDS011;4944;52.514;13.192;2023-07-09T14:39:52;4.47;;;4.18;;
9809;SDS011;4944;52.514;13.192;2023-07-09T14:42:19;6.72;;;4.55;;
9809;SDS011;4944;52.514;13.192;2023-07-09T14:44:48;4.90;;;4.50;;
9809;SDS011;4944;52.514;13.192;2023-07-09T14:47:16;4.50;;;4.15;;
9809;SDS011;4944;52.514;13.192;2023-07-09T14:49:46;4.70;;;4.10;;
9809;SDS011;4944;52.514;13.192;2023-07-09T14:52:16;5.32;;;4.35;;
9809;SDS011;4944;52.514;13.192;2023-07-09T14:54:47;6.00;;;4.18;;
9809;SDS011;4944;52.514;13.192;2023-07-09T14:57:17;5.10;;;4.25;;
9809;SDS011;4944;52.514;13.192;2023-07-09T14:59:47;5.15;;;4.68;;
9809;SDS011;4944;52.514;13.192;2023-07-09T15:02:19;5.15;;;4.65;;
9809;SDS011;4944;52.514;13.192;2023-07-09T15:04:50;5.32;;;4.95;;
9809;SDS011;4944;52.514;13.192;2023-07-09T15:07:17;5.13;;;4.60;;
9809;SDS011;4944;52.514;13.192;2023-07-09T15:09:44;9.15;;;4.45;;
9809;SDS011;4944;52.514;13.192;2023-07-09T15:12:15;4.95;;;4.45;;
9809;SDS011;4944;52.514;13.192;2023-07-09T15:14:45;5.18;;;4.68;;
9809;SDS011;4944;52.514;13.192;2023-07-09T15:17:12;5.10;;;4.45;;